Time;durP1;ratioP1;P1;durP2;ratioP2;P2;SDS_P1;SDS_P2;PMS_P1;PMS_P2;Temp;Humidity;BMP_temperature;BMP_pressure;BME280_temperature;BME280_humidity;BME280_pressure;Samples;Min_cycle;Max_cycle;Signal;HPM_P1;HPM_P2
2022/05/21 00:00:09;;;;;;;4.35;3.40;;;;;;;;;;5055018;28;20115;-68
2022/05/21 00:02:36;;;;;;;4.50;3.15;;;;;;;;;;5054423;28;20052;-68
2022/05/21 00:05:04;;;;;;;3.95;3.10;;;;;;;;;;5054633;28;20052;-68
2022/05/21 00:07:30;;;;;;;5.60;3.17;;;;;;;;;;5054747;28;20103;-68
2022/05/21 00:09:57;;;;;;;5.07;3.15;;;;;;;;;;5041482;28;20492;-68
2022/05/21 00:12:24;;;;;;;5.60;2.85;;;;;;;;;;5034477;28;20053;-68
2022/05/21 00:14:53;;;;;;;3.72;3.00;;;;;;;;;;5034544;28;20064;-68
2022/05/21 00:17:20;;;;;;;4.63;3.08;;;;;;;;;;5034432;28;20049;-67
2022/05/21 00:19:47;;;;;;;5.47;3.20;;;;;;;;;;5034630;28;20045;-68
2022/05/21 00:22:14;;;;;;;6.82;4.05;;;;;;;;;;5034717;28;20049;-67
2022/05/21 00:24:40;;;;;;;6.05;2.90;;;;;;;;;;5038684;28;20051;-68
2022/05/21 00:27:07;;;;;;;4.72;2.80;;;;;;;;;;5054627;28;20048;-69
2022/05/21 00:29:34;;;;;;;3.90;2.88;;;;;;;;;;5054151;28;20500;-68
2022/05/21 00:32:02;;;;;;;5.88;2.63;;;;;;;;;;5054074;28;20053;-68
2022/05/21 00:34:29;;;;;;;2.88;2.67;;;;;;;;;;5044167;28;20107;-68
2022/05/21 00:36:56;;;;;;;4.25;3.17;;;;;;;;;;5034391;28;20053;-69
2022/05/21 00:39:23;;;;;;;6.93;3.85;;;;;;;;;;5034109;28;20096;-67
2022/05/21 00:41:50;;;;;;;6.40;3.50;;;;;;;;;;5034046;28;20076;-68
2022/05/21 00:44:17;;;;;;;3.53;3.08;;;;;;;;;;5033885;28;20049;-67
2022/05/21 00:46:44;;;;;;;3.55;3.08;;;;;;;;;;5034202;28;20056;-67
2022/05/21 00:49:20;;;;;;;3.70;3.38;;;;;;;;;;5048837;28;20081;-68
2022/05/21 00:51:48;;;;;;;4.60;3.47;;;;;;;;;;5052504;28;20053;-68
2022/05/21 00:54:16;;;;;;;4.57;3.33;;;;;;;;;;5052627;28;20063;-67
2022/05/21 00:56:47;;;;;;;4.40;3.20;;;;;;;;;;5052853;28;20488;-68
2022/05/21 01:02:00;;;;;;;5.22;3.10;;;;;;;;;;5033712;28;20045;-68
2022/05/21 01:04:27;;;;;;;4.38;3.97;;;;;;;;;;5016465;28;20053;-67
2022/05/21 01:06:54;;;;;;;4.70;3.65;;;;;;;;;;5033662;28;20056;-68
2022/05/21 01:09:21;;;;;;;6.10;3.58;;;;;;;;;;5015803;28;20053;-68
2022/05/21 01:11:47;;;;;;;3.45;3.15;;;;;;;;;;5033522;28;20058;-67
2022/05/21 01:14:14;;;;;;;5.50;3.47;;;;;;;;;;5033327;28;20192;-68
2022/05/21 01:16:42;;;;;;;3.95;3.58;;;;;;;;;;5032372;28;20049;-68
2022/05/21 01:19:09;;;;;;;4.53;3.30;;;;;;;;;;5033303;28;20056;-68
2022/05/21 01:21:37;;;;;;;5.60;3.75;;;;;;;;;;5033266;28;20053;-68
2022/05/21 01:24:08;;;;;;;3.70;3.10;;;;;;;;;;5033184;28;20060;-67
2022/05/21 01:26:35;;;;;;;4.70;3.28;;;;;;;;;;5032292;28;20056;-69
2022/05/21 01:29:03;;;;;;;3.30;3.00;;;;;;;;;;5034037;28;20099;-68
2022/05/21 01:31:32;;;;;;;4.70;2.92;;;;;;;;;;5031808;28;20056;-68
2022/05/21 01:33:59;;;;;;;4.18;3.00;;;;;;;;;;5033253;28;20059;-70
2022/05/21 01:36:26;;;;;;;4.25;3.15;;;;;;;;;;5033415;28;20389;-68
2022/05/21 01:38:52;;;;;;;3.10;2.85;;;;;;;;;;5032842;28;20045;-66
2022/05/21 01:41:19;;;;;;;5.07;2.90;;;;;;;;;;5032955;28;20053;-67
2022/05/21 01:46:31;;;;;;;5.43;2.88;;;;;;;;;;5032961;28;20045;-68
2022/05/21 01:48:57;;;;;;;3.35;2.70;;;;;;;;;;5041790;28;20045;-68
2022/05/21 01:51:24;;;;;;;4.35;2.78;;;;;;;;;;5052725;28;20053;-68
2022/05/21 01:53:51;;;;;;;4.43;2.90;;;;;;;;;;5052957;28;20480;-67
2022/05/21 01:56:17;;;;;;;5.18;2.85;;;;;;;;;;5052766;28;20045;-68
2022/05/21 01:58:44;;;;;;;3.28;2.97;;;;;;;;;;5052405;28;20053;-68
2022/05/21 02:01:11;;;;;;;4.05;2.38;;;;;;;;;;5052879;28;20068;-68
2022/05/21 02:03:38;;;;;;;3.90;3.10;;;;;;;;;;5052534;28;20463;-67
2022/05/21 02:06:05;;;;;;;4.05;2.80;;;;;;;;;;5052587;28;20404;-67
2022/05/21 02:08:32;;;;;;;3.55;3.10;;;;;;;;;;5052448;28;20045;-68
2022/05/21 02:10:59;;;;;;;4.13;3.20;;;;;;;;;;5052240;28;20466;-67
2022/05/21 02:13:28;;;;;;;4.22;2.95;;;;;;;;;;5036114;28;20091;-67
2022/05/21 02:15:54;;;;;;;5.13;3.22;;;;;;;;;;5032333;28;20735;-68
2022/05/21 02:18:21;;;;;;;4.63;3.20;;;;;;;;;;5031123;28;20415;-68
2022/05/21 02:20:48;;;;;;;3.67;3.28;;;;;;;;;;5031971;28;20115;-68
2022/05/21 02:23:15;;;;;;;4.55;3.13;;;;;;;;;;5031441;28;20064;-68
2022/05/21 02:25:43;;;;;;;4.20;3.25;;;;;;;;;;5030563;28;20050;-67
2022/05/21 02:28:10;;;;;;;4.95;3.58;;;;;;;;;;5031684;28;20052;-67
2022/05/21 02:30:36;;;;;;;4.63;3.80;;;;;;;;;;5031858;28;20492;-68
2022/05/21 02:33:03;;;;;;;6.03;3.83;;;;;;;;;;5032073;28;20473;-68
2022/05/21 02:35:30;;;;;;;6.82;3.38;;;;;;;;;;5032192;28;20064;-67
2022/05/21 02:40:41;;;;;;;4.03;3.63;;;;;;;;;;5031789;28;20053;-67
2022/05/21 02:43:08;;;;;;;8.00;3.25;;;;;;;;;;5030528;28;20045;-68
2022/05/21 02:45:35;;;;;;;9.05;3.45;;;;;;;;;;5031926;28;20093;-68
2022/05/21 02:48:02;;;;;;;4.20;3.50;;;;;;;;;;5031968;28;20136;-67
2022/05/21 02:50:33;;;;;;;5.40;4.25;;;;;;;;;;5031695;28;20501;-68
2022/05/21 02:53:01;;;;;;;4.25;3.85;;;;;;;;;;5031748;28;20053;-69
2022/05/21 02:55:28;;;;;;;4.47;3.42;;;;;;;;;;5031844;28;20050;-67
2022/05/21 02:57:55;;;;;;;5.35;4.03;;;;;;;;;;5032028;28;20124;-67
2022/05/21 03:00:28;;;;;;;6.80;4.30;;;;;;;;;;5031562;28;20405;-67
2022/05/21 03:02:55;;;;;;;5.07;4.05;;;;;;;;;;5031686;28;20053;-68
2022/05/21 03:05:22;;;;;;;6.50;4.45;;;;;;;;;;5031670;28;20057;-68
2022/05/21 03:07:50;;;;;;;4.38;3.97;;;;;;;;;;5032200;28;20127;-67
2022/05/21 03:10:26;;;;;;;6.82;3.78;;;;;;;;;;5031556;28;20076;-67
2022/05/21 03:12:55;;;;;;;6.20;4.30;;;;;;;;;;5031681;28;20061;-68
2022/05/21 03:15:34;;;;;;;8.45;4.68;;;;;;;;;;5031630;28;20053;-67
2022/05/21 03:18:01;;;;;;;5.72;4.95;;;;;;;;;;5031605;28;20103;-67
2022/05/21 03:20:28;;;;;;;6.60;4.95;;;;;;;;;;5035479;28;20049;-68
2022/05/21 03:22:55;;;;;;;5.30;4.80;;;;;;;;;;5035435;28;20192;-67
2022/05/21 03:25:23;;;;;;;5.85;5.35;;;;;;;;;;5035744;28;20103;-68
2022/05/21 03:27:51;;;;;;;6.88;5.35;;;;;;;;;;5035513;28;20056;-67
2022/05/21 03:30:20;;;;;;;9.45;5.72;;;;;;;;;;5035270;28;20428;-67
2022/05/21 03:32:46;;;;;;;8.20;5.85;;;;;;;;;;5035268;28;20076;-68
2022/05/21 03:35:15;;;;;;;8.50;6.50;;;;;;;;;;5035326;28;20060;-67
2022/05/21 03:37:42;;;;;;;8.38;6.45;;;;;;;;;;5035381;28;20065;-67
2022/05/21 03:40:11;;;;;;;8.32;6.13;;;;;;;;;;5035466;28;20041;-68
2022/05/21 03:42:38;;;;;;;7.90;6.28;;;;;;;;;;5035256;28;20049;-68
2022/05/21 03:45:06;;;;;;;9.52;6.10;;;;;;;;;;5035086;28;20145;-67
2022/05/21 03:47:33;;;;;;;8.88;6.88;;;;;;;;;;5035025;28;20057;-68
2022/05/21 03:49:59;;;;;;;9.18;6.68;;;;;;;;;;5035218;28;20049;-67
2022/05/21 03:52:26;;;;;;;10.05;6.88;;;;;;;;;;5034999;28;20072;-68
2022/05/21 03:54:53;;;;;;;8.55;6.45;;;;;;;;;;5035119;28;20053;-68
2022/05/21 03:57:19;;;;;;;7.30;6.53;;;;;;;;;;5035067;28;20049;-68
2022/05/21 03:59:46;;;;;;;7.00;6.25;;;;;;;;;;5057089;22;20042;-66
2022/05/21 04:02:13;;;;;;;8.48;6.40;;;;;;;;;;5035133;28;20049;-65
2022/05/21 04:04:39;;;;;;;11.05;7.25;;;;;;;;;;5035063;28;20107;-65
2022/05/21 04:07:07;;;;;;;7.75;6.63;;;;;;;;;;5034963;28;20064;-65
2022/05/21 04:09:34;;;;;;;7.05;6.35;;;;;;;;;;5034855;28;20057;-65
2022/05/21 04:12:01;;;;;;;8.07;7.28;;;;;;;;;;5029225;28;20079;-65
2022/05/21 04:14:27;;;;;;;7.55;6.20;;;;;;;;;;5034808;28;20061;-65
2022/05/21 04:16:59;;;;;;;7.10;6.40;;;;;;;;;;5034537;28;20416;-65
2022/05/21 04:19:26;;;;;;;10.20;6.97;;;;;;;;;;5034709;28;20698;-65
2022/05/21 04:21:53;;;;;;;7.65;6.68;;;;;;;;;;5034869;28;20050;-65
2022/05/21 04:24:20;;;;;;;9.30;5.88;;;;;;;;;;5034633;28;20061;-65
2022/05/21 04:26:46;;;;;;;8.65;7.13;;;;;;;;;;5034631;28;20077;-65
2022/05/21 04:29:14;;;;;;;7.10;6.13;;;;;;;;;;5034049;28;20045;-65
2022/05/21 04:31:41;;;;;;;8.10;6.07;;;;;;;;;;5033617;28;20049;-65
2022/05/21 04:34:08;;;;;;;6.25;5.65;;;;;;;;;;5034383;28;20384;-66
2022/05/21 04:36:35;;;;;;;7.40;5.78;;;;;;;;;;5034588;28;20056;-65
2022/05/21 04:39:01;;;;;;;7.78;6.13;;;;;;;;;;5034259;28;20049;-65
2022/05/21 04:41:28;;;;;;;7.15;5.65;;;;;;;;;;5034311;28;20056;-66
2022/05/21 04:43:55;;;;;;;8.73;5.60;;;;;;;;;;5033978;28;20500;-65
2022/05/21 04:46:24;;;;;;;7.80;5.20;;;;;;;;;;5034290;28;20049;-65
2022/05/21 04:48:51;;;;;;;8.45;6.45;;;;;;;;;;5034292;28;20056;-66
2022/05/21 04:51:31;;;;;;;6.07;4.95;;;;;;;;;;5033847;28;20053;-65
2022/05/21 04:53:58;;;;;;;5.53;5.03;;;;;;;;;;5033845;28;20056;-65
2022/05/21 04:56:25;;;;;;;6.63;4.80;;;;;;;;;;5034277;28;20496;-65
2022/05/21 04:59:04;;;;;;;6.68;4.90;;;;;;;;;;5033774;28;20049;-65
2022/05/21 05:01:31;;;;;;;5.78;4.70;;;;;;;;;;5032709;28;20060;-65
2022/05/21 05:03:58;;;;;;;6.50;5.38;;;;;;;;;;5033798;28;20050;-65
2022/05/21 05:06:24;;;;;;;8.90;5.05;;;;;;;;;;5033646;28;20518;-65
2022/05/21 05:08:51;;;;;;;5.82;5.03;;;;;;;;;;5033475;28;20053;-66
2022/05/21 05:11:18;;;;;;;6.60;4.78;;;;;;;;;;5033272;28;20053;-65
2022/05/21 05:13:44;;;;;;;8.95;4.88;;;;;;;;;;5033529;28;20523;-65
2022/05/21 05:16:11;;;;;;;5.45;4.95;;;;;;;;;;5015442;28;20050;-65
2022/05/21 05:18:38;;;;;;;6.03;5.32;;;;;;;;;;5013658;28;20050;-65
2022/05/21 05:21:04;;;;;;;6.03;4.53;;;;;;;;;;5013479;28;20054;-67
2022/05/21 05:23:31;;;;;;;9.10;4.63;;;;;;;;;;5013386;28;20421;-73
2022/05/21 05:26:00;;;;;;;7.65;4.68;;;;;;;;;;5027928;28;20080;-66
2022/05/21 05:28:28;;;;;;;5.10;4.20;;;;;;;;;;5013667;28;20053;-66
2022/05/21 05:30:54;;;;;;;4.90;3.97;;;;;;;;;;5013290;28;20054;-65
2022/05/21 05:33:22;;;;;;;7.40;4.68;;;;;;;;;;5024578;28;20056;-66
2022/05/21 05:35:52;;;;;;;5.30;4.80;;;;;;;;;;5033139;28;20397;-65
2022/05/21 05:38:20;;;;;;;6.43;4.72;;;;;;;;;;5033360;28;20052;-72
2022/05/21 05:40:49;;;;;;;5.15;4.65;;;;;;;;;;5032544;28;20049;-65
2022/05/21 05:43:16;;;;;;;5.47;4.38;;;;;;;;;;5032151;28;20132;-64
2022/05/21 05:45:43;;;;;;;5.63;3.90;;;;;;;;;;5018409;28;20052;-65
2022/05/21 05:48:10;;;;;;;4.45;3.50;;;;;;;;;;5012994;28;20108;-65
2022/05/21 05:50:37;;;;;;;4.53;3.80;;;;;;;;;;5028108;28;20053;-65
2022/05/21 05:53:05;;;;;;;5.38;3.10;;;;;;;;;;5021603;28;20112;-65
2022/05/21 05:55:33;;;;;;;5.47;3.40;;;;;;;;;;5033035;28;20439;-65
2022/05/21 05:57:59;;;;;;;8.77;3.20;;;;;;;;;;5032880;28;20065;-64
2022/05/21 06:00:26;;;;;;;3.47;2.83;;;;;;;;;;5032514;28;20041;-65
2022/05/21 06:02:59;;;;;;;4.07;3.20;;;;;;;;;;5032459;28;20045;-65
2022/05/21 06:05:32;;;;;;;5.15;3.22;;;;;;;;;;5033116;28;20412;-64
2022/05/21 06:08:01;;;;;;;4.45;2.92;;;;;;;;;;5032803;28;20046;-64
2022/05/21 06:10:35;;;;;;;2.95;2.75;;;;;;;;;;5032548;28;20076;-65
2022/05/21 06:13:02;;;;;;;4.35;2.83;;;;;;;;;;5032421;28;20124;-64
2022/05/21 06:15:29;;;;;;;4.43;2.85;;;;;;;;;;5032526;28;20046;-64
2022/05/21 06:17:56;;;;;;;4.57;2.78;;;;;;;;;;5031412;28;20072;-65
2022/05/21 06:20:25;;;;;;;2.50;2.30;;;;;;;;;;5032575;28;20052;-65
2022/05/21 06:22:52;;;;;;;4.32;2.83;;;;;;;;;;5027172;28;20500;-65
2022/05/21 06:25:23;;;;;;;8.10;2.72;;;;;;;;;;5013183;28;20062;-65
2022/05/21 06:27:51;;;;;;;5.15;2.10;;;;;;;;;;5013086;28;20054;-65
2022/05/21 06:30:19;;;;;;;4.45;2.05;;;;;;;;;;5012756;28;20053;-65
2022/05/21 06:32:46;;;;;;;3.38;1.98;;;;;;;;;;5016581;28;20050;-65
2022/05/21 06:35:13;;;;;;;1.60;1.50;;;;;;;;;;5032195;28;20049;-65
2022/05/21 06:37:39;;;;;;;2.85;1.60;;;;;;;;;;5031975;28;20500;-65
2022/05/21 06:40:07;;;;;;;2.60;1.88;;;;;;;;;;5030791;28;20072;-65
2022/05/21 06:42:34;;;;;;;2.55;1.50;;;;;;;;;;5031501;28;20053;-65
2022/05/21 06:45:02;;;;;;;2.20;1.92;;;;;;;;;;5031935;28;20136;-65
2022/05/21 06:47:28;;;;;;;1.35;1.20;;;;;;;;;;5032125;28;20050;-65
2022/05/21 06:49:56;;;;;;;8.02;1.30;;;;;;;;;;5031999;28;20100;-65
2022/05/21 06:52:24;;;;;;;2.03;1.35;;;;;;;;;;5030542;28;20045;-65
2022/05/21 06:54:51;;;;;;;2.58;1.23;;;;;;;;;;5026419;28;20077;-65
2022/05/21 06:57:18;;;;;;;2.83;1.60;;;;;;;;;;5012006;28;20121;-65
2022/05/21 06:59:45;;;;;;;1.88;1.40;;;;;;;;;;5012020;28;20053;-64
2022/05/21 07:02:12;;;;;;;2.65;1.10;;;;;;;;;;5012076;28;20428;-65
2022/05/21 07:07:33;;;;;;;6.45;1.50;;;;;;;;;;5011774;28;20076;-65
2022/05/21 07:10:10;;;;;;;1.98;1.45;;;;;;;;;;5011934;28;20517;-65
2022/05/21 07:12:36;;;;;;;3.42;1.33;;;;;;;;;;5011754;28;20061;-65
2022/05/21 07:15:05;;;;;;;2.28;0.90;;;;;;;;;;5011892;28;20133;-65
2022/05/21 07:17:31;;;;;;;1.42;0.70;;;;;;;;;;5012027;28;20097;-71
2022/05/21 07:20:01;;;;;;;2.13;1.00;;;;;;;;;;5011609;28;20489;-64
2022/05/21 07:22:28;;;;;;;2.67;0.82;;;;;;;;;;5010062;28;20112;-65
2022/05/21 07:24:55;;;;;;;1.70;1.15;;;;;;;;;;5029539;28;20591;-65
2022/05/21 07:27:23;;;;;;;3.22;0.88;;;;;;;;;;5029611;28;20488;-65
2022/05/21 07:29:49;;;;;;;1.85;1.10;;;;;;;;;;5029503;28;20049;-65
2022/05/21 07:32:23;;;;;;;2.15;1.02;;;;;;;;;;5029449;28;20064;-66
2022/05/21 07:35:02;;;;;;;3.75;1.10;;;;;;;;;;5009140;28;20068;-66
2022/05/21 07:37:29;;;;;;;1.52;1.13;;;;;;;;;;5009884;28;20054;-66
2022/05/21 07:39:56;;;;;;;3.97;1.58;;;;;;;;;;5008307;28;20057;-66
2022/05/21 07:42:23;;;;;;;1.40;0.98;;;;;;;;;;5009552;28;20062;-66
2022/05/21 07:44:50;;;;;;;1.63;0.80;;;;;;;;;;5009653;28;20053;-66
2022/05/21 07:47:16;;;;;;;1.25;0.80;;;;;;;;;;5009143;28;20058;-67
2022/05/21 07:49:43;;;;;;;1.70;0.80;;;;;;;;;;5009510;28;20500;-66
2022/05/21 07:52:10;;;;;;;2.05;0.70;;;;;;;;;;5009697;28;20045;-67
2022/05/21 07:54:36;;;;;;;0.57;0.50;;;;;;;;;;5009545;28;20452;-67
2022/05/21 07:57:03;;;;;;;2.90;0.90;;;;;;;;;;5009606;28;20057;-67
2022/05/21 07:59:30;;;;;;;1.77;0.60;;;;;;;;;;4991757;28;20111;-66
2022/05/21 08:01:57;;;;;;;2.40;0.85;;;;;;;;;;5008862;28;20054;-66
2022/05/21 08:04:24;;;;;;;0.77;0.50;;;;;;;;;;5010531;28;20393;-67
2022/05/21 08:06:50;;;;;;;2.80;0.80;;;;;;;;;;5016583;28;20056;-66
2022/05/21 08:09:21;;;;;;;3.03;0.73;;;;;;;;;;5014811;28;20108;-66
2022/05/21 08:11:49;;;;;;;1.92;0.98;;;;;;;;;;5014807;28;20054;-66
2022/05/21 08:14:16;;;;;;;2.03;0.65;;;;;;;;;;5018161;28;20045;-66
2022/05/21 08:16:42;;;;;;;2.55;1.08;;;;;;;;;;5030587;28;20049;-68
2022/05/21 08:19:09;;;;;;;2.17;0.68;;;;;;;;;;5024598;28;20048;-65
2022/05/21 08:21:36;;;;;;;3.63;0.68;;;;;;;;;;5037908;28;20522;-66
2022/05/21 08:26:58;;;;;;;1.73;0.70;;;;;;;;;;5023699;28;20046;-67
2022/05/21 08:29:26;;;;;;;1.55;0.60;;;;;;;;;;5022239;28;20046;-68
2022/05/21 08:31:53;;;;;;;1.20;0.65;;;;;;;;;;5019728;28;20046;-68
2022/05/21 08:34:20;;;;;;;1.48;0.88;;;;;;;;;;5020671;28;20053;-70
2022/05/21 08:36:47;;;;;;;2.08;0.77;;;;;;;;;;5023342;28;20095;-66
2022/05/21 08:39:15;;;;;;;1.85;0.70;;;;;;;;;;5020614;28;20048;-67
2022/05/21 08:41:57;;;;;;;2.95;0.80;;;;;;;;;;5020309;28;20417;-69
2022/05/21 08:44:41;;;;;;;1.65;0.50;;;;;;;;;;5019711;28;20504;-69
2022/05/21 08:47:34;;;;;;;2.03;0.70;;;;;;;;;;5027870;28;20107;-72
2022/05/21 08:50:09;;;;;;;0.95;0.50;;;;;;;;;;5016059;28;20089;-66
2022/05/21 08:52:57;;;;;;;2.20;0.80;;;;;;;;;;5024205;28;20046;-67
2022/05/21 08:55:51;;;;;;;0.60;0.57;;;;;;;;;;5020213;28;20045;-67
2022/05/21 08:58:27;;;;;;;0.80;0.60;;;;;;;;;;5034920;28;20467;-67
2022/05/21 09:00:53;;;;;;;1.15;0.68;;;;;;;;;;5017658;28;20054;-67
2022/05/21 09:03:23;;;;;;;3.20;0.73;;;;;;;;;;5020552;28;20057;-66
2022/05/21 09:05:55;;;;;;;1.73;0.80;;;;;;;;;;5027115;28;20045;-66
2022/05/21 09:08:39;;;;;;;2.22;0.65;;;;;;;;;;5019947;28;20517;-67
2022/05/21 09:11:14;;;;;;;1.48;0.55;;;;;;;;;;5021433;28;20053;-66
2022/05/21 09:13:56;;;;;;;2.17;0.80;;;;;;;;;;5020529;28;20147;-66
2022/05/21 09:19:09;;;;;;;1.95;0.90;;;;;;;;;;5027276;28;20045;-67
2022/05/21 09:21:45;;;;;;;2.90;0.82;;;;;;;;;;5020553;28;20045;-66
2022/05/21 09:24:35;;;;;;;1.60;0.70;;;;;;;;;;5021927;28;20505;-66
2022/05/21 09:27:04;;;;;;;0.50;0.50;;;;;;;;;;5023201;28;20069;-66
2022/05/21 09:29:33;;;;;;;1.15;0.60;;;;;;;;;;5025547;28;20072;-67
2022/05/21 09:32:17;;;;;;;1.25;0.68;;;;;;;;;;5023474;28;20042;-66
2022/05/21 09:34:43;;;;;;;2.22;0.73;;;;;;;;;;5021927;28;20046;-67
2022/05/21 09:37:17;;;;;;;1.08;0.60;;;;;;;;;;5021826;28;20050;-67
2022/05/21 09:39:43;;;;;;;4.35;0.82;;;;;;;;;;5017977;28;20488;-66
2022/05/21 09:45:26;;;;;;;2.25;1.27;;;;;;;;;;5028112;28;20104;-67
2022/05/21 09:48:05;;;;;;;2.15;0.90;;;;;;;;;;5021455;28;20411;-67
2022/05/21 09:50:56;;;;;;;3.72;1.02;;;;;;;;;;5021221;28;20116;-67
2022/05/21 09:53:23;;;;;;;1.98;0.73;;;;;;;;;;5020635;28;20049;-66
2022/05/21 09:55:58;;;;;;;0.88;0.50;;;;;;;;;;5017829;28;20053;-66
2022/05/21 09:58:25;;;;;;;3.92;0.90;;;;;;;;;;5019715;28;20427;-66
2022/05/21 10:00:54;;;;;;;1.17;0.60;;;;;;;;;;5016546;28;20515;-67
2022/05/21 10:03:35;;;;;;;1.88;0.70;;;;;;;;;;5023450;28;20054;-67
2022/05/21 10:06:02;;;;;;;1.55;0.80;;;;;;;;;;5022233;28;20045;-67
2022/05/21 10:11:30;;;;;;;2.42;0.65;;;;;;;;;;5005893;28;20045;-72
2022/05/21 10:14:32;;;;;;;1.58;0.85;;;;;;;;;;5049072;23;20696;-69
2022/05/21 10:17:06;;;;;;;1.43;0.70;;;;;;;;;;5002410;28;20438;-68
2022/05/21 10:19:47;;;;;;;1.25;1.00;;;;;;;;;;4999636;28;20466;-74
2022/05/21 10:22:39;;;;;;;1.13;0.60;;;;;;;;;;4998710;28;20050;-73
2022/05/21 10:25:09;;;;;;;1.75;0.50;;;;;;;;;;5000672;28;20050;-73
2022/05/21 10:27:57;;;;;;;0.98;0.73;;;;;;;;;;4999712;28;20051;-70
2022/05/21 10:30:24;;;;;;;1.58;0.60;;;;;;;;;;5000687;28;20456;-70
2022/05/21 10:33:07;;;;;;;1.15;0.40;;;;;;;;;;5000205;28;20050;-70
2022/05/21 10:35:59;;;;;;;1.83;0.47;;;;;;;;;;4998062;28;20076;-69
2022/05/21 10:38:38;;;;;;;1.80;0.77;;;;;;;;;;4999722;28;20563;-69
2022/05/21 10:41:41;;;;;;;2.03;0.85;;;;;;;;;;5000244;28;20046;-69
2022/05/21 10:44:51;;;;;;;3.85;0.85;;;;;;;;;;5002529;28;20053;-71
2022/05/21 10:47:38;;;;;;;2.13;0.70;;;;;;;;;;4997227;28;20548;-70
2022/05/21 10:50:14;;;;;;;1.48;0.70;;;;;;;;;;4997526;28;20555;-72
2022/05/21 10:53:08;;;;;;;3.42;0.73;;;;;;;;;;5000280;28;20054;-72
2022/05/21 10:55:44;;;;;;;4.07;1.08;;;;;;;;;;5000705;28;20493;-67
2022/05/21 10:58:13;;;;;;;1.48;0.80;;;;;;;;;;5001806;28;20052;-68
2022/05/21 11:01:09;;;;;;;0.65;0.45;;;;;;;;;;4997717;28;20054;-68
2022/05/21 11:03:57;;;;;;;1.30;0.68;;;;;;;;;;5009778;28;20489;-66
2022/05/21 11:06:50;;;;;;;0.98;0.55;;;;;;;;;;4998236;28;20101;-69
2022/05/21 11:09:50;;;;;;;1.92;0.52;;;;;;;;;;4987541;28;20053;-69
2022/05/21 11:12:28;;;;;;;1.77;0.60;;;;;;;;;;5005779;28;20046;-71
2022/05/21 11:15:12;;;;;;;1.50;0.43;;;;;;;;;;5000247;28;20042;-64
2022/05/21 11:17:40;;;;;;;2.05;0.70;;;;;;;;;;5003898;28;20046;-67
2022/05/21 11:20:11;;;;;;;1.70;1.05;;;;;;;;;;5016235;28;20054;-66
2022/05/21 11:22:46;;;;;;;3.03;0.60;;;;;;;;;;5003165;28;20052;-67
2022/05/21 11:25:21;;;;;;;2.80;0.70;;;;;;;;;;5003440;28;20046;-66
2022/05/21 11:28:23;;;;;;;0.68;0.52;;;;;;;;;;5012112;28;20046;-66
2022/05/21 11:30:59;;;;;;;1.98;0.70;;;;;;;;;;4997110;28;20054;-66
2022/05/21 11:39:01;;;;;;;3.75;0.70;;;;;;;;;;5003257;28;20496;-70
2022/05/21 11:41:53;;;;;;;1.05;0.50;;;;;;;;;;5005637;28;20053;-67
2022/05/21 11:47:05;;;;;;;1.85;0.90;;;;;;;;;;5003567;28;20058;-66
2022/05/21 11:49:34;;;;;;;2.38;0.68;;;;;;;;;;5002759;28;20050;-66
2022/05/21 11:52:27;;;;;;;2.20;0.63;;;;;;;;;;5000880;28;20046;-72
2022/05/21 11:54:58;;;;;;;3.90;1.65;;;;;;;;;;4989276;28;20054;-69
2022/05/21 11:57:36;;;;;;;2.95;0.93;;;;;;;;;;5003970;28;20045;-67
2022/05/21 12:00:03;;;;;;;5.20;2.45;;;;;;;;;;5002212;28;20659;-67
2022/05/21 12:02:38;;;;;;;5.30;3.30;;;;;;;;;;5000065;28;20417;-67
2022/05/21 12:05:26;;;;;;;3.33;1.48;;;;;;;;;;5005199;28;20057;-67
2022/05/21 12:07:53;;;;;;;3.67;1.75;;;;;;;;;;5003901;28;20053;-66
2022/05/21 12:10:29;;;;;;;4.50;1.52;;;;;;;;;;5000714;28;20520;-67
2022/05/21 12:13:16;;;;;;;6.35;3.38;;;;;;;;;;5004532;28;20056;-66
2022/05/21 12:15:50;;;;;;;3.13;0.98;;;;;;;;;;5015836;28;20096;-67
2022/05/21 12:18:37;;;;;;;6.07;3.80;;;;;;;;;;5006451;28;20479;-67
2022/05/21 12:21:40;;;;;;;1.98;0.60;;;;;;;;;;5015247;28;20056;-67
2022/05/21 12:24:08;;;;;;;3.20;0.70;;;;;;;;;;5001154;28;20493;-67
2022/05/21 12:26:35;;;;;;;17.58;7.25;;;;;;;;;;5015517;28;20062;-67
2022/05/21 12:29:08;;;;;;;5.93;2.92;;;;;;;;;;5001631;28;20045;-67
2022/05/21 12:31:44;;;;;;;6.95;3.22;;;;;;;;;;5005993;28;20053;-67
2022/05/21 12:34:22;;;;;;;8.45;4.43;;;;;;;;;;5001726;28;20100;-67
2022/05/21 12:37:09;;;;;;;5.10;1.50;;;;;;;;;;5001936;28;20501;-65
2022/05/21 12:39:46;;;;;;;5.60;2.90;;;;;;;;;;5015184;28;20056;-66
2022/05/21 12:42:35;;;;;;;2.97;1.00;;;;;;;;;;5010092;28;20413;-66
2022/05/21 12:45:02;;;;;;;2.65;1.17;;;;;;;;;;5005973;28;20046;-66
2022/05/21 12:47:32;;;;;;;3.10;1.00;;;;;;;;;;5002077;28;20056;-66
2022/05/21 12:50:01;;;;;;;3.65;0.95;;;;;;;;;;4999909;28;20058;-66
2022/05/21 12:52:42;;;;;;;2.20;0.60;;;;;;;;;;5013212;28;20046;-68
2022/05/21 12:55:31;;;;;;;3.33;0.82;;;;;;;;;;5000544;28;20046;-66
2022/05/21 12:58:08;;;;;;;0.52;0.47;;;;;;;;;;5000857;28;20047;-66
2022/05/21 13:00:37;;;;;;;5.00;1.85;;;;;;;;;;4999274;28;20050;-66
2022/05/21 13:03:09;;;;;;;3.55;1.48;;;;;;;;;;5012734;28;20101;-67
2022/05/21 13:05:48;;;;;;;;;;;;;;;;;;5005192;28;20137;-67
2022/05/21 13:08:16;;;;;;;3.13;1.10;;;;;;;;;;5008301;28;19925;-67
2022/05/21 13:10:55;;;;;;;1.95;0.95;;;;;;;;;;4988697;28;20042;-66
2022/05/21 13:13:23;;;;;;;1.50;0.65;;;;;;;;;;5003668;28;20050;-66
2022/05/21 13:15:55;;;;;;;1.98;0.70;;;;;;;;;;4999040;28;20076;-67
2022/05/21 13:18:45;;;;;;;2.63;0.90;;;;;;;;;;5003494;28;20058;-66
2022/05/21 13:21:33;;;;;;;1.58;0.60;;;;;;;;;;4985854;28;20046;-66
2022/05/21 13:24:14;;;;;;;3.28;0.80;;;;;;;;;;4999289;28;20437;-67
2022/05/21 13:26:41;;;;;;;2.22;0.70;;;;;;;;;;4999384;28;20050;-66
2022/05/21 13:29:19;;;;;;;2.35;0.70;;;;;;;;;;5014887;28;20104;-66
2022/05/21 13:31:50;;;;;;;2.70;0.65;;;;;;;;;;5015491;28;20074;-65
2022/05/21 13:34:19;;;;;;;2.72;0.70;;;;;;;;;;4999450;28;20054;-66
2022/05/21 13:36:52;;;;;;;1.40;0.75;;;;;;;;;;5001098;28;20050;-65
2022/05/21 13:39:33;;;;;;;1.02;0.70;;;;;;;;;;4998725;28;20062;-66
2022/05/21 13:42:15;;;;;;;2.47;0.80;;;;;;;;;;4999666;28;20046;-66
2022/05/21 13:44:45;;;;;;;2.45;0.90;;;;;;;;;;5004748;28;20053;-67
2022/05/21 13:47:20;;;;;;;2.53;0.70;;;;;;;;;;4999122;28;20053;-66
2022/05/21 13:49:51;;;;;;;1.67;0.75;;;;;;;;;;5013419;28;20058;-67
2022/05/21 13:52:18;;;;;;;2.00;0.63;;;;;;;;;;4992172;28;20042;-66
2022/05/21 13:54:44;;;;;;;1.15;0.63;;;;;;;;;;5002867;28;20053;-67
2022/05/21 13:57:21;;;;;;;3.17;0.70;;;;;;;;;;5010317;28;20058;-67
2022/05/21 13:59:48;;;;;;;3.60;1.00;;;;;;;;;;5012767;28;20050;-66
2022/05/21 14:02:46;;;;;;;2.20;0.90;;;;;;;;;;5012039;28;20056;-66
2022/05/21 14:05:27;;;;;;;1.92;0.60;;;;;;;;;;4996529;28;20050;-66
2022/05/21 14:08:06;;;;;;;2.90;0.68;;;;;;;;;;4993489;28;20053;-66
2022/05/21 14:10:43;;;;;;;1.75;0.60;;;;;;;;;;5001473;28;20046;-67
2022/05/21 14:13:26;;;;;;;2.40;0.50;;;;;;;;;;4999892;28;20042;-65
2022/05/21 14:15:53;;;;;;;2.22;0.80;;;;;;;;;;5002578;28;20452;-66
2022/05/21 14:18:33;;;;;;;2.50;1.55;;;;;;;;;;5002200;28;20053;-66
2022/05/21 14:21:06;;;;;;;4.65;3.25;;;;;;;;;;5003136;28;20382;-67
2022/05/21 14:23:39;;;;;;;5.15;2.25;;;;;;;;;;5002349;28;20519;-67
2022/05/21 14:26:31;;;;;;;5.22;2.50;;;;;;;;;;5004287;28;20046;-66
2022/05/21 14:28:58;;;;;;;4.93;2.67;;;;;;;;;;5012613;28;20125;-66
2022/05/21 14:31:47;;;;;;;4.43;2.63;;;;;;;;;;5012340;28;20048;-67
2022/05/21 14:34:14;;;;;;;5.07;2.10;;;;;;;;;;5006786;28;20042;-66
2022/05/21 14:36:42;;;;;;;4.32;1.40;;;;;;;;;;5012531;28;20057;-66
2022/05/21 14:39:10;;;;;;;5.03;1.73;;;;;;;;;;5012436;28;20054;-67
2022/05/21 14:41:40;;;;;;;4.07;1.17;;;;;;;;;;5012053;28;20050;-67
2022/05/21 14:44:20;;;;;;;7.30;3.35;;;;;;;;;;5011447;28;20158;-66
2022/05/21 14:49:32;;;;;;;3.38;1.38;;;;;;;;;;5012324;28;20085;-66
2022/05/21 14:54:45;;;;;;;3.17;1.58;;;;;;;;;;4997082;28;20105;-66
2022/05/21 14:57:14;;;;;;;3.97;1.52;;;;;;;;;;4992713;28;20145;-66
2022/05/21 14:59:41;;;;;;;1.60;0.95;;;;;;;;;;4990614;28;20058;-65
2022/05/21 15:02:08;;;;;;;2.70;0.88;;;;;;;;;;4991883;28;20046;-65
2022/05/21 15:04:35;;;;;;;1.30;0.73;;;;;;;;;;5005301;28;20049;-64
2022/05/21 15:07:05;;;;;;;2.30;0.82;;;;;;;;;;4997925;28;20498;-64
2022/05/21 15:09:32;;;;;;;2.10;0.73;;;;;;;;;;5007248;28;20054;-65
2022/05/21 15:11:59;;;;;;;3.88;1.23;;;;;;;;;;5001220;28;20050;-65
2022/05/21 15:14:26;;;;;;;4.05;1.15;;;;;;;;;;5005297;28;20425;-66
2022/05/21 15:16:52;;;;;;;3.15;1.60;;;;;;;;;;5003710;28;20046;-66
2022/05/21 15:19:19;;;;;;;2.47;0.85;;;;;;;;;;5003517;28;20104;-66
2022/05/21 15:21:55;;;;;;;1.55;0.90;;;;;;;;;;5003843;28;20047;-65
2022/05/21 15:24:22;;;;;;;1.55;0.80;;;;;;;;;;5001546;28;20050;-66
2022/05/21 15:26:48;;;;;;;4.03;2.50;;;;;;;;;;5003695;28;20100;-65
2022/05/21 15:29:15;;;;;;;4.68;1.67;;;;;;;;;;5005499;28;20567;-66
2022/05/21 15:31:41;;;;;;;1.40;0.60;;;;;;;;;;5005729;28;20054;-65
2022/05/21 15:34:08;;;;;;;2.80;0.73;;;;;;;;;;5002455;28;20138;-65
2022/05/21 15:36:35;;;;;;;6.45;3.60;;;;;;;;;;5006881;28;20558;-65
2022/05/21 15:39:02;;;;;;;9.98;4.45;;;;;;;;;;5002996;28;20054;-65
2022/05/21 15:41:28;;;;;;;4.03;2.72;;;;;;;;;;5009519;28;20046;-66
2022/05/21 15:43:57;;;;;;;4.43;2.03;;;;;;;;;;5009453;28;20053;-65